Elgin, Oklahoma
Current Conditions -  °F | °C
As of 6:58 PM on Tuesday 27 Jan 2015 (Local Time) from KFSI Reporting Station
Clear Clear  
Wind Chill: 61°   Ceiling: Unl
Heat Index: 61°   Visibility: 10mi
Dew Point: 43°   Wind: 5mph
Humidity: 52%   Direction: 180°S
Pressure: 30.07"   Gusts: NA
Location:  34.78°N, 98.29°W
Report Text: KFSI 280058Z AUTO 18004KT 10SM CLR 16/06 A3007 RMK AO2 SLP182 T01590059
Loading
Personal Weather Stations






























Interactive Weather Map New forecast layout! Learn more

10-Day Weather Forecast

Advertisements
Track Severe Weather on mobile